sensor_id;sensor_type;location;lat;lon;timestamp;P1;durP1;ratioP1;P2;durP2;ratioP2
8411;SDS011;4243;49.296;11.348;2023-04-08T00:01:38;116.97;;;3.00;;
8411;SDS011;4243;49.296;11.348;2023-04-08T00:04:05;114.07;;;3.03;;
8411;SDS011;4243;49.296;11.348;2023-04-08T00:06:35;115.97;;;3.10;;
8411;SDS011;4243;49.296;11.348;2023-04-08T00:09:02;116.60;;;3.00;;
8411;SDS011;4243;49.296;11.348;2023-04-08T00:11:29;116.07;;;3.07;;
8411;SDS011;4243;49.296;11.348;2023-04-08T00:13:57;116.70;;;3.07;;
8411;SDS011;4243;49.296;11.348;2023-04-08T00:16:25;116.80;;;3.00;;
8411;SDS011;4243;49.296;11.348;2023-04-08T00:18:53;117.07;;;3.10;;
8411;SDS011;4243;49.296;11.348;2023-04-08T00:21:20;117.27;;;3.10;;
8411;SDS011;4243;49.296;11.348;2023-04-08T00:23:48;115.70;;;3.00;;
8411;SDS011;4243;49.296;11.348;2023-04-08T00:26:15;116.40;;;3.10;;
8411;SDS011;4243;49.296;11.348;2023-04-08T00:28:42;115.47;;;3.10;;
8411;SDS011;4243;49.296;11.348;2023-04-08T00:31:10;116.43;;;3.10;;
8411;SDS011;4243;49.296;11.348;2023-04-08T00:33:37;117.07;;;3.10;;
8411;SDS011;4243;49.296;11.348;2023-04-08T00:36:04;115.57;;;3.03;;
8411;SDS011;4243;49.296;11.348;2023-04-08T00:38:31;116.80;;;3.23;;
8411;SDS011;4243;49.296;11.348;2023-04-08T00:40:58;116.87;;;3.13;;
8411;SDS011;4243;49.296;11.348;2023-04-08T00:43:25;114.17;;;3.07;;
8411;SDS011;4243;49.296;11.348;2023-04-08T00:45:52;117.27;;;3.10;;
8411;SDS011;4243;49.296;11.348;2023-04-08T00:48:20;117.17;;;3.03;;
8411;SDS011;4243;49.296;11.348;2023-04-08T00:50:47;116.97;;;3.10;;
8411;SDS011;4243;49.296;11.348;2023-04-08T00:53:14;117.30;;;3.10;;
8411;SDS011;4243;49.296;11.348;2023-04-08T00:55:44;116.60;;;3.00;;
8411;SDS011;4243;49.296;11.348;2023-04-08T00:58:12;116.67;;;3.00;;
8411;SDS011;4243;49.296;11.348;2023-04-08T01:00:41;116.87;;;3.00;;
8411;SDS011;4243;49.296;11.348;2023-04-08T01:03:34;115.47;;;3.00;;
8411;SDS011;4243;49.296;11.348;2023-04-08T01:06:29;117.17;;;3.00;;
8411;SDS011;4243;49.296;11.348;2023-04-08T01:09:08;116.70;;;2.97;;
8411;SDS011;4243;49.296;11.348;2023-04-08T01:11:39;117.07;;;3.07;;
8411;SDS011;4243;49.296;11.348;2023-04-08T01:14:10;113.70;;;2.97;;
8411;SDS011;4243;49.296;11.348;2023-04-08T01:16:46;115.37;;;3.07;;
8411;SDS011;4243;49.296;11.348;2023-04-08T01:19:16;116.57;;;3.00;;
8411;SDS011;4243;49.296;11.348;2023-04-08T01:22:00;116.97;;;3.10;;
8411;SDS011;4243;49.296;11.348;2023-04-08T01:24:56;116.53;;;3.10;;
8411;SDS011;4243;49.296;11.348;2023-04-08T01:27:33;116.77;;;3.07;;
8411;SDS011;4243;49.296;11.348;2023-04-08T01:30:03;113.87;;;3.00;;
8411;SDS011;4243;49.296;11.348;2023-04-08T01:32:33;116.57;;;3.10;;
8411;SDS011;4243;49.296;11.348;2023-04-08T01:35:02;115.67;;;3.00;;
8411;SDS011;4243;49.296;11.348;2023-04-08T01:37:31;117.17;;;3.03;;
8411;SDS011;4243;49.296;11.348;2023-04-08T01:39:59;116.50;;;2.93;;
8411;SDS011;4243;49.296;11.348;2023-04-08T01:42:28;116.67;;;3.00;;
8411;SDS011;4243;49.296;11.348;2023-04-08T01:44:57;115.27;;;2.93;;
8411;SDS011;4243;49.296;11.348;2023-04-08T01:47:26;117.27;;;2.97;;
8411;SDS011;4243;49.296;11.348;2023-04-08T01:49:55;116.10;;;3.00;;
8411;SDS011;4243;49.296;11.348;2023-04-08T01:52:24;116.67;;;3.03;;
8411;SDS011;4243;49.296;11.348;2023-04-08T01:54:54;115.27;;;3.00;;
8411;SDS011;4243;49.296;11.348;2023-04-08T01:57:29;116.00;;;3.00;;
8411;SDS011;4243;49.296;11.348;2023-04-08T02:00:04;116.10;;;3.03;;
8411;SDS011;4243;49.296;11.348;2023-04-08T02:02:45;115.97;;;3.10;;
8411;SDS011;4243;49.296;11.348;2023-04-08T02:05:14;116.37;;;2.93;;
8411;SDS011;4243;49.296;11.348;2023-04-08T02:07:41;116.50;;;3.00;;
8411;SDS011;4243;49.296;11.348;2023-04-08T02:10:11;115.27;;;2.90;;
8411;SDS011;4243;49.296;11.348;2023-04-08T02:12:39;117.17;;;3.00;;
8411;SDS011;4243;49.296;11.348;2023-04-08T02:15:09;116.70;;;3.10;;
8411;SDS011;4243;49.296;11.348;2023-04-08T02:17:48;116.30;;;2.90;;
8411;SDS011;4243;49.296;11.348;2023-04-08T02:20:23;116.60;;;3.10;;
8411;SDS011;4243;49.296;11.348;2023-04-08T02:23:39;115.07;;;3.00;;
8411;SDS011;4243;49.296;11.348;2023-04-08T02:26:12;116.30;;;3.00;;
8411;SDS011;4243;49.296;11.348;2023-04-08T02:28:42;116.57;;;2.93;;
8411;SDS011;4243;49.296;11.348;2023-04-08T02:31:10;116.53;;;3.00;;
8411;SDS011;4243;49.296;11.348;2023-04-08T02:33:43;115.90;;;2.97;;
8411;SDS011;4243;49.296;11.348;2023-04-08T02:36:13;117.17;;;3.10;;
8411;SDS011;4243;49.296;11.348;2023-04-08T02:38:41;116.60;;;3.03;;
8411;SDS011;4243;49.296;11.348;2023-04-08T02:41:15;116.40;;;2.97;;
8411;SDS011;4243;49.296;11.348;2023-04-08T02:43:42;116.30;;;2.93;;
8411;SDS011;4243;49.296;11.348;2023-04-08T02:46:09;115.27;;;3.07;;
8411;SDS011;4243;49.296;11.348;2023-04-08T02:48:37;116.47;;;3.13;;
8411;SDS011;4243;49.296;11.348;2023-04-08T02:51:05;116.60;;;3.07;;
8411;SDS011;4243;49.296;11.348;2023-04-08T02:53:32;115.80;;;2.97;;
8411;SDS011;4243;49.296;11.348;2023-04-08T02:55:59;116.37;;;3.07;;
8411;SDS011;4243;49.296;11.348;2023-04-08T02:58:27;116.40;;;3.07;;
8411;SDS011;4243;49.296;11.348;2023-04-08T03:00:54;114.43;;;3.10;;
8411;SDS011;4243;49.296;11.348;2023-04-08T03:03:21;116.57;;;3.00;;
8411;SDS011;4243;49.296;11.348;2023-04-08T03:05:56;115.90;;;2.90;;
8411;SDS011;4243;49.296;11.348;2023-04-08T03:08:24;116.40;;;3.00;;
8411;SDS011;4243;49.296;11.348;2023-04-08T03:10:51;115.90;;;3.03;;
8411;SDS011;4243;49.296;11.348;2023-04-08T03:13:19;116.10;;;3.00;;
8411;SDS011;4243;49.296;11.348;2023-04-08T03:15:46;116.67;;;3.00;;
8411;SDS011;4243;49.296;11.348;2023-04-08T03:18:13;116.70;;;3.03;;
8411;SDS011;4243;49.296;11.348;2023-04-08T03:20:41;116.37;;;2.97;;
8411;SDS011;4243;49.296;11.348;2023-04-08T03:23:08;115.17;;;3.00;;
8411;SDS011;4243;49.296;11.348;2023-04-08T03:25:36;116.17;;;3.00;;
8411;SDS011;4243;49.296;11.348;2023-04-08T03:28:03;116.60;;;3.17;;
8411;SDS011;4243;49.296;11.348;2023-04-08T03:30:30;116.30;;;2.93;;
8411;SDS011;4243;49.296;11.348;2023-04-08T03:32:57;116.20;;;3.03;;
8411;SDS011;4243;49.296;11.348;2023-04-08T03:35:25;114.77;;;3.03;;
8411;SDS011;4243;49.296;11.348;2023-04-08T03:37:52;116.77;;;3.00;;
8411;SDS011;4243;49.296;11.348;2023-04-08T03:40:20;116.50;;;3.00;;
8411;SDS011;4243;49.296;11.348;2023-04-08T03:42:48;115.60;;;3.00;;
8411;SDS011;4243;49.296;11.348;2023-04-08T03:45:15;116.50;;;3.00;;
8411;SDS011;4243;49.296;11.348;2023-04-08T03:47:42;116.47;;;3.00;;
8411;SDS011;4243;49.296;11.348;2023-04-08T03:50:09;116.37;;;3.00;;
8411;SDS011;4243;49.296;11.348;2023-04-08T03:52:37;116.10;;;3.00;;
8411;SDS011;4243;49.296;11.348;2023-04-08T03:55:04;116.40;;;3.00;;
8411;SDS011;4243;49.296;11.348;2023-04-08T03:57:32;116.13;;;3.00;;
8411;SDS011;4243;49.296;11.348;2023-04-08T03:59:59;115.60;;;3.07;;
8411;SDS011;4243;49.296;11.348;2023-04-08T04:02:26;115.63;;;3.00;;
8411;SDS011;4243;49.296;11.348;2023-04-08T04:04:54;116.23;;;3.00;;
8411;SDS011;4243;49.296;11.348;2023-04-08T04:07:23;116.03;;;3.00;;
8411;SDS011;4243;49.296;11.348;2023-04-08T04:09:54;117.17;;;3.00;;
8411;SDS011;4243;49.296;11.348;2023-04-08T04:12:22;116.47;;;2.93;;
8411;SDS011;4243;49.296;11.348;2023-04-08T04:14:49;115.70;;;3.00;;
8411;SDS011;4243;49.296;11.348;2023-04-08T04:17:16;116.53;;;2.97;;
8411;SDS011;4243;49.296;11.348;2023-04-08T04:19:43;116.07;;;2.97;;
8411;SDS011;4243;49.296;11.348;2023-04-08T04:22:10;116.53;;;3.13;;
8411;SDS011;4243;49.296;11.348;2023-04-08T04:24:38;116.73;;;3.00;;
8411;SDS011;4243;49.296;11.348;2023-04-08T04:27:05;116.70;;;3.03;;
8411;SDS011;4243;49.296;11.348;2023-04-08T04:29:32;116.60;;;3.00;;
8411;SDS011;4243;49.296;11.348;2023-04-08T04:31:59;113.47;;;3.00;;
8411;SDS011;4243;49.296;11.348;2023-04-08T04:34:26;116.30;;;2.97;;
8411;SDS011;4243;49.296;11.348;2023-04-08T04:36:54;115.23;;;2.90;;
8411;SDS011;4243;49.296;11.348;2023-04-08T04:39:21;116.37;;;2.90;;
8411;SDS011;4243;49.296;11.348;2023-04-08T04:41:48;116.20;;;3.00;;
8411;SDS011;4243;49.296;11.348;2023-04-08T04:44:16;116.53;;;2.90;;
8411;SDS011;4243;49.296;11.348;2023-04-08T04:46:44;116.90;;;2.90;;
8411;SDS011;4243;49.296;11.348;2023-04-08T04:49:12;116.50;;;2.93;;
8411;SDS011;4243;49.296;11.348;2023-04-08T04:51:39;116.60;;;2.83;;
8411;SDS011;4243;49.296;11.348;2023-04-08T04:54:06;115.57;;;2.83;;
8411;SDS011;4243;49.296;11.348;2023-04-08T04:56:33;115.90;;;2.90;;
8411;SDS011;4243;49.296;11.348;2023-04-08T04:59:00;116.53;;;2.90;;
8411;SDS011;4243;49.296;11.348;2023-04-08T05:01:27;115.80;;;2.87;;
8411;SDS011;4243;49.296;11.348;2023-04-08T05:03:54;115.47;;;2.93;;
8411;SDS011;4243;49.296;11.348;2023-04-08T05:06:22;116.27;;;2.87;;
8411;SDS011;4243;49.296;11.348;2023-04-08T05:08:49;116.07;;;2.97;;
8411;SDS011;4243;49.296;11.348;2023-04-08T05:11:17;116.20;;;2.90;;
8411;SDS011;4243;49.296;11.348;2023-04-08T05:13:44;115.80;;;2.80;;
8411;SDS011;4243;49.296;11.348;2023-04-08T05:16:11;115.83;;;2.83;;
8411;SDS011;4243;49.296;11.348;2023-04-08T05:18:39;115.67;;;2.80;;
8411;SDS011;4243;49.296;11.348;2023-04-08T05:21:06;116.00;;;2.80;;
8411;SDS011;4243;49.296;11.348;2023-04-08T05:23:33;116.37;;;2.80;;
8411;SDS011;4243;49.296;11.348;2023-04-08T05:26:01;116.00;;;2.80;;
8411;SDS011;4243;49.296;11.348;2023-04-08T05:28:28;113.07;;;2.83;;
8411;SDS011;4243;49.296;11.348;2023-04-08T05:30:56;116.37;;;2.80;;
8411;SDS011;4243;49.296;11.348;2023-04-08T05:33:23;116.27;;;2.87;;
8411;SDS011;4243;49.296;11.348;2023-04-08T05:35:51;115.47;;;2.90;;
8411;SDS011;4243;49.296;11.348;2023-04-08T05:38:19;115.33;;;2.80;;
8411;SDS011;4243;49.296;11.348;2023-04-08T05:40:46;116.47;;;2.87;;
8411;SDS011;4243;49.296;11.348;2023-04-08T05:43:13;116.23;;;2.80;;
8411;SDS011;4243;49.296;11.348;2023-04-08T05:45:40;114.97;;;2.80;;
8411;SDS011;4243;49.296;11.348;2023-04-08T05:48:07;113.77;;;2.80;;
8411;SDS011;4243;49.296;11.348;2023-04-08T05:50:34;116.33;;;2.83;;
8411;SDS011;4243;49.296;11.348;2023-04-08T05:53:01;115.73;;;2.83;;
8411;SDS011;4243;49.296;11.348;2023-04-08T05:55:28;115.80;;;2.80;;
8411;SDS011;4243;49.296;11.348;2023-04-08T05:57:55;114.83;;;2.80;;
8411;SDS011;4243;49.296;11.348;2023-04-08T06:00:22;116.07;;;2.90;;
8411;SDS011;4243;49.296;11.348;2023-04-08T06:02:50;116.30;;;2.90;;
8411;SDS011;4243;49.296;11.348;2023-04-08T06:05:17;114.77;;;2.80;;
8411;SDS011;4243;49.296;11.348;2023-04-08T06:07:44;115.70;;;2.90;;
8411;SDS011;4243;49.296;11.348;2023-04-08T06:10:12;115.70;;;2.83;;
8411;SDS011;4243;49.296;11.348;2023-04-08T06:12:39;116.00;;;2.93;;
8411;SDS011;4243;49.296;11.348;2023-04-08T06:15:06;114.77;;;2.90;;
8411;SDS011;4243;49.296;11.348;2023-04-08T06:17:35;115.97;;;2.90;;
8411;SDS011;4243;49.296;11.348;2023-04-08T06:20:07;116.37;;;3.00;;
8411;SDS011;4243;49.296;11.348;2023-04-08T06:22:34;115.50;;;2.90;;
8411;SDS011;4243;49.296;11.348;2023-04-08T09:16:41;114.57;;;2.67;;
8411;SDS011;4243;49.296;11.348;2023-04-08T09:19:10;116.40;;;2.87;;
8411;SDS011;4243;49.296;11.348;2023-04-08T09:21:37;116.80;;;2.80;;
8411;SDS011;4243;49.296;11.348;2023-04-08T09:24:07;116.60;;;2.90;;
8411;SDS011;4243;49.296;11.348;2023-04-08T09:26:36;116.17;;;2.73;;
8411;SDS011;4243;49.296;11.348;2023-04-08T09:29:07;116.43;;;2.80;;
8411;SDS011;4243;49.296;11.348;2023-04-08T09:31:54;116.27;;;2.77;;
8411;SDS011;4243;49.296;11.348;2023-04-08T09:34:27;116.27;;;2.63;;
8411;SDS011;4243;49.296;11.348;2023-04-08T09:36:57;116.70;;;2.83;;
8411;SDS011;4243;49.296;11.348;2023-04-08T09:39:24;116.37;;;2.90;;
8411;SDS011;4243;49.296;11.348;2023-04-08T09:41:51;116.97;;;3.00;;
8411;SDS011;4243;49.296;11.348;2023-04-08T09:44:23;115.87;;;2.80;;
8411;SDS011;4243;49.296;11.348;2023-04-08T09:47:00;116.10;;;3.00;;
8411;SDS011;4243;49.296;11.348;2023-04-08T09:49:47;116.40;;;2.87;;
8411;SDS011;4243;49.296;11.348;2023-04-08T09:52:23;116.47;;;2.80;;
8411;SDS011;4243;49.296;11.348;2023-04-08T09:55:03;116.47;;;2.80;;
8411;SDS011;4243;49.296;11.348;2023-04-08T09:57:42;116.57;;;2.80;;
8411;SDS011;4243;49.296;11.348;2023-04-08T10:00:21;116.30;;;2.70;;
8411;SDS011;4243;49.296;11.348;2023-04-08T10:03:01;116.27;;;2.90;;
8411;SDS011;4243;49.296;11.348;2023-04-08T10:05:52;116.80;;;3.00;;
8411;SDS011;4243;49.296;11.348;2023-04-08T10:08:22;116.73;;;3.00;;
8411;SDS011;4243;49.296;11.348;2023-04-08T10:10:51;116.23;;;2.70;;
8411;SDS011;4243;49.296;11.348;2023-04-08T10:13:21;116.10;;;2.90;;
8411;SDS011;4243;49.296;11.348;2023-04-08T10:15:53;116.37;;;2.90;;
8411;SDS011;4243;49.296;11.348;2023-04-08T10:18:51;116.10;;;2.80;;
8411;SDS011;4243;49.296;11.348;2023-04-08T10:21:31;116.33;;;2.80;;
8411;SDS011;4243;49.296;11.348;2023-04-08T10:24:13;115.70;;;2.80;;
8411;SDS011;4243;49.296;11.348;2023-04-08T10:26:41;116.10;;;2.77;;
8411;SDS011;4243;49.296;11.348;2023-04-08T10:31:47;116.37;;;3.00;;
8411;SDS011;4243;49.296;11.348;2023-04-08T10:34:16;115.70;;;2.90;;
8411;SDS011;4243;49.296;11.348;2023-04-08T10:36:46;116.40;;;2.90;;
8411;SDS011;4243;49.296;11.348;2023-04-08T10:39:15;117.13;;;2.90;;
8411;SDS011;4243;49.296;11.348;2023-04-08T10:41:43;116.57;;;2.73;;
8411;SDS011;4243;49.296;11.348;2023-04-08T10:46:52;116.60;;;2.80;;
8411;SDS011;4243;49.296;11.348;2023-04-08T10:49:20;115.37;;;2.73;;
8411;SDS011;4243;49.296;11.348;2023-04-08T10:51:47;116.27;;;2.80;;
8411;SDS011;4243;49.296;11.348;2023-04-08T10:54:16;116.30;;;2.73;;
8411;SDS011;4243;49.296;11.348;2023-04-08T10:56:50;116.43;;;2.77;;
8411;SDS011;4243;49.296;11.348;2023-04-08T10:59:28;116.30;;;2.70;;
8411;SDS011;4243;49.296;11.348;2023-04-08T11:01:58;116.60;;;2.83;;
8411;SDS011;4243;49.296;11.348;2023-04-08T11:04:26;116.67;;;2.80;;
8411;SDS011;4243;49.296;11.348;2023-04-08T11:06:54;116.70;;;2.90;;
8411;SDS011;4243;49.296;11.348;2023-04-08T11:09:21;116.97;;;2.80;;
8411;SDS011;4243;49.296;11.348;2023-04-08T11:11:48;116.20;;;2.90;;
8411;SDS011;4243;49.296;11.348;2023-04-08T11:14:17;116.57;;;2.70;;
8411;SDS011;4243;49.296;11.348;2023-04-08T11:16:47;116.63;;;2.80;;
8411;SDS011;4243;49.296;11.348;2023-04-08T11:19:14;116.60;;;2.77;;
8411;SDS011;4243;49.296;11.348;2023-04-08T11:21:41;115.40;;;2.97;;
8411;SDS011;4243;49.296;11.348;2023-04-08T11:24:09;115.90;;;2.80;;
8411;SDS011;4243;49.296;11.348;2023-04-08T11:26:41;116.87;;;2.80;;
8411;SDS011;4243;49.296;11.348;2023-04-08T11:29:11;116.57;;;2.90;;
8411;SDS011;4243;49.296;11.348;2023-04-08T11:31:41;114.80;;;2.87;;
8411;SDS011;4243;49.296;11.348;2023-04-08T11:34:09;116.80;;;2.80;;
8411;SDS011;4243;49.296;11.348;2023-04-08T11:36:39;116.97;;;2.77;;
8411;SDS011;4243;49.296;11.348;2023-04-08T11:39:07;117.17;;;2.93;;
8411;SDS011;4243;49.296;11.348;2023-04-08T11:41:37;116.77;;;3.00;;
8411;SDS011;4243;49.296;11.348;2023-04-08T11:44:05;117.10;;;2.77;;
8411;SDS011;4243;49.296;11.348;2023-04-08T11:46:34;115.73;;;2.80;;
8411;SDS011;4243;49.296;11.348;2023-04-08T11:49:03;115.53;;;2.90;;
8411;SDS011;4243;49.296;11.348;2023-04-08T11:51:34;116.90;;;2.80;;
8411;SDS011;4243;49.296;11.348;2023-04-08T11:54:30;115.20;;;2.80;;
8411;SDS011;4243;49.296;11.348;2023-04-08T11:56:58;116.67;;;2.70;;
8411;SDS011;4243;49.296;11.348;2023-04-08T11:59:26;116.17;;;2.70;;
8411;SDS011;4243;49.296;11.348;2023-04-08T12:01:55;115.37;;;2.60;;
8411;SDS011;4243;49.296;11.348;2023-04-08T12:04:22;116.70;;;2.87;;
8411;SDS011;4243;49.296;11.348;2023-04-08T12:06:51;115.80;;;2.60;;
8411;SDS011;4243;49.296;11.348;2023-04-08T12:09:18;117.10;;;2.67;;
8411;SDS011;4243;49.296;11.348;2023-04-08T12:11:46;117.13;;;2.67;;
8411;SDS011;4243;49.296;11.348;2023-04-08T12:14:13;116.40;;;2.70;;
8411;SDS011;4243;49.296;11.348;2023-04-08T12:16:41;116.47;;;2.70;;
8411;SDS011;4243;49.296;11.348;2023-04-08T12:19:08;116.97;;;2.70;;
8411;SDS011;4243;49.296;11.348;2023-04-08T12:21:36;114.67;;;2.70;;
8411;SDS011;4243;49.296;11.348;2023-04-08T12:24:03;115.60;;;2.70;;
8411;SDS011;4243;49.296;11.348;2023-04-08T12:26:30;115.57;;;2.70;;
8411;SDS011;4243;49.296;11.348;2023-04-08T12:28:57;115.27;;;2.60;;
8411;SDS011;4243;49.296;11.348;2023-04-08T12:31:25;116.40;;;2.60;;
8411;SDS011;4243;49.296;11.348;2023-04-08T12:33:53;115.87;;;2.70;;
8411;SDS011;4243;49.296;11.348;2023-04-08T12:36:20;115.27;;;2.57;;
8411;SDS011;4243;49.296;11.348;2023-04-08T12:38:47;116.97;;;2.70;;
8411;SDS011;4243;49.296;11.348;2023-04-08T12:41:14;116.30;;;2.60;;
8411;SDS011;4243;49.296;11.348;2023-04-08T12:43:42;114.60;;;2.60;;
8411;SDS011;4243;49.296;11.348;2023-04-08T12:46:09;117.13;;;2.67;;
8411;SDS011;4243;49.296;11.348;2023-04-08T12:48:37;116.80;;;2.70;;
8411;SDS011;4243;49.296;11.348;2023-04-08T12:51:04;115.67;;;2.60;;
8411;SDS011;4243;49.296;11.348;2023-04-08T12:53:32;115.90;;;2.63;;
8411;SDS011;4243;49.296;11.348;2023-04-08T12:55:59;116.23;;;2.60;;
8411;SDS011;4243;49.296;11.348;2023-04-08T12:58:26;116.83;;;3.40;;
8411;SDS011;4243;49.296;11.348;2023-04-08T13:00:53;115.40;;;2.70;;
8411;SDS011;4243;49.296;11.348;2023-04-08T13:03:21;116.10;;;2.63;;
8411;SDS011;4243;49.296;11.348;2023-04-08T13:05:48;116.87;;;2.73;;
8411;SDS011;4243;49.296;11.348;2023-04-08T13:08:16;117.07;;;2.60;;
8411;SDS011;4243;49.296;11.348;2023-04-08T13:10:44;117.17;;;2.67;;
8411;SDS011;4243;49.296;11.348;2023-04-08T13:13:11;117.03;;;2.70;;
8411;SDS011;4243;49.296;11.348;2023-04-08T13:15:39;116.87;;;2.70;;
8411;SDS011;4243;49.296;11.348;2023-04-08T13:18:07;117.17;;;2.70;;
8411;SDS011;4243;49.296;11.348;2023-04-08T13:20:34;115.17;;;2.77;;
8411;SDS011;4243;49.296;11.348;2023-04-08T13:23:02;116.20;;;2.77;;
8411;SDS011;4243;49.296;11.348;2023-04-08T13:25:29;116.20;;;2.83;;
8411;SDS011;4243;49.296;11.348;2023-04-08T13:27:56;116.27;;;2.70;;
8411;SDS011;4243;49.296;11.348;2023-04-08T13:30:24;116.50;;;2.70;;
8411;SDS011;4243;49.296;11.348;2023-04-08T13:32:51;116.33;;;2.80;;
8411;SDS011;4243;49.296;11.348;2023-04-08T13:35:18;116.40;;;2.70;;
8411;SDS011;4243;49.296;11.348;2023-04-08T13:37:45;116.37;;;2.70;;
8411;SDS011;4243;49.296;11.348;2023-04-08T13:40:12;116.97;;;2.73;;
8411;SDS011;4243;49.296;11.348;2023-04-08T13:42:40;116.67;;;2.67;;
8411;SDS011;4243;49.296;11.348;2023-04-08T13:45:07;116.17;;;2.80;;
8411;SDS011;4243;49.296;11.348;2023-04-08T13:47:35;116.73;;;2.87;;
8411;SDS011;4243;49.296;11.348;2023-04-08T13:50:03;116.70;;;2.63;;
8411;SDS011;4243;49.296;11.348;2023-04-08T13:52:32;116.43;;;3.10;;
8411;SDS011;4243;49.296;11.348;2023-04-08T13:54:59;115.50;;;2.67;;
8411;SDS011;4243;49.296;11.348;2023-04-08T13:57:27;116.47;;;2.70;;
8411;SDS011;4243;49.296;11.348;2023-04-08T13:59:54;116.57;;;2.70;;
8411;SDS011;4243;49.296;11.348;2023-04-08T14:02:21;116.67;;;2.80;;
8411;SDS011;4243;49.296;11.348;2023-04-08T14:04:49;116.00;;;2.63;;
8411;SDS011;4243;49.296;11.348;2023-04-08T14:07:17;115.70;;;2.80;;
8411;SDS011;4243;49.296;11.348;2023-04-08T14:09:45;116.17;;;2.60;;
8411;SDS011;4243;49.296;11.348;2023-04-08T14:12:12;115.73;;;2.67;;
8411;SDS011;4243;49.296;11.348;2023-04-08T14:14:39;115.67;;;2.73;;
8411;SDS011;4243;49.296;11.348;2023-04-08T14:17:07;115.97;;;2.77;;
8411;SDS011;4243;49.296;11.348;2023-04-08T14:19:34;116.47;;;2.80;;
8411;SDS011;4243;49.296;11.348;2023-04-08T14:22:01;116.63;;;3.00;;
8411;SDS011;4243;49.296;11.348;2023-04-08T14:24:29;115.97;;;2.80;;
8411;SDS011;4243;49.296;11.348;2023-04-08T14:26:56;115.50;;;2.80;;
8411;SDS011;4243;49.296;11.348;2023-04-08T14:29:24;117.07;;;2.83;;
8411;SDS011;4243;49.296;11.348;2023-04-08T14:31:53;115.67;;;2.70;;
8411;SDS011;4243;49.296;11.348;2023-04-08T14:34:20;116.20;;;2.70;;
8411;SDS011;4243;49.296;11.348;2023-04-08T14:36:47;116.87;;;2.77;;
8411;SDS011;4243;49.296;11.348;2023-04-08T14:39:14;115.77;;;2.87;;
8411;SDS011;4243;49.296;11.348;2023-04-08T14:41:42;116.37;;;2.70;;
8411;SDS011;4243;49.296;11.348;2023-04-08T14:44:08;117.17;;;2.70;;
8411;SDS011;4243;49.296;11.348;2023-04-08T14:46:36;116.47;;;2.80;;
8411;SDS011;4243;49.296;11.348;2023-04-08T14:49:03;117.07;;;2.73;;
8411;SDS011;4243;49.296;11.348;2023-04-08T14:51:31;115.80;;;2.77;;
8411;SDS011;4243;49.296;11.348;2023-04-08T14:53:58;117.13;;;2.80;;
8411;SDS011;4243;49.296;11.348;2023-04-08T14:56:27;117.17;;;2.77;;
8411;SDS011;4243;49.296;11.348;2023-04-08T14:58:54;115.37;;;2.67;;
8411;SDS011;4243;49.296;11.348;2023-04-08T15:01:21;115.57;;;2.70;;
8411;SDS011;4243;49.296;11.348;2023-04-08T15:03:49;116.57;;;2.60;;
8411;SDS011;4243;49.296;11.348;2023-04-08T15:06:16;116.53;;;2.67;;
8411;SDS011;4243;49.296;11.348;2023-04-08T15:08:46;114.30;;;2.80;;
8411;SDS011;4243;49.296;11.348;2023-04-08T15:11:14;113.70;;;2.60;;
8411;SDS011;4243;49.296;11.348;2023-04-08T15:13:41;116.20;;;2.70;;
8411;SDS011;4243;49.296;11.348;2023-04-08T15:16:09;115.50;;;2.70;;
8411;SDS011;4243;49.296;11.348;2023-04-08T15:18:36;115.50;;;2.60;;
8411;SDS011;4243;49.296;11.348;2023-04-08T15:21:03;115.40;;;2.60;;
8411;SDS011;4243;49.296;11.348;2023-04-08T15:23:31;115.60;;;2.70;;
8411;SDS011;4243;49.296;11.348;2023-04-08T15:25:58;115.87;;;2.60;;
8411;SDS011;4243;49.296;11.348;2023-04-08T15:28:26;116.37;;;2.60;;
8411;SDS011;4243;49.296;11.348;2023-04-08T15:30:53;116.23;;;2.70;;
8411;SDS011;4243;49.296;11.348;2023-04-08T15:33:21;116.10;;;2.70;;
8411;SDS011;4243;49.296;11.348;2023-04-08T15:35:48;116.27;;;2.60;;
8411;SDS011;4243;49.296;11.348;2023-04-08T15:38:15;115.70;;;2.70;;
8411;SDS011;4243;49.296;11.348;2023-04-08T15:40:42;116.23;;;2.83;;
8411;SDS011;4243;49.296;11.348;2023-04-08T15:43:13;115.87;;;2.60;;
8411;SDS011;4243;49.296;11.348;2023-04-08T15:45:41;116.20;;;2.70;;
8411;SDS011;4243;49.296;11.348;2023-04-08T15:48:09;116.17;;;2.60;;
8411;SDS011;4243;49.296;11.348;2023-04-08T15:50:37;116.40;;;2.57;;
8411;SDS011;4243;49.296;11.348;2023-04-08T15:53:05;116.37;;;2.70;;
8411;SDS011;4243;49.296;11.348;2023-04-08T15:55:36;117.10;;;2.73;;
8411;SDS011;4243;49.296;11.348;2023-04-08T15:58:07;116.87;;;2.77;;
8411;SDS011;4243;49.296;11.348;2023-04-08T16:00:34;116.40;;;2.80;;
8411;SDS011;4243;49.296;11.348;2023-04-08T16:03:01;116.63;;;2.70;;
8411;SDS011;4243;49.296;11.348;2023-04-08T16:05:31;116.50;;;2.67;;
8411;SDS011;4243;49.296;11.348;2023-04-08T16:08:01;116.63;;;2.70;;
8411;SDS011;4243;49.296;11.348;2023-04-08T16:10:29;116.67;;;2.60;;
8411;SDS011;4243;49.296;11.348;2023-04-08T16:12:57;116.40;;;2.80;;
8411;SDS011;4243;49.296;11.348;2023-04-08T16:15:24;117.20;;;2.90;;
8411;SDS011;4243;49.296;11.348;2023-04-08T16:17:51;116.70;;;2.70;;
8411;SDS011;4243;49.296;11.348;2023-04-08T16:20:19;116.37;;;2.73;;
8411;SDS011;4243;49.296;11.348;2023-04-08T16:22:47;116.27;;;2.70;;
8411;SDS011;4243;49.296;11.348;2023-04-08T16:25:15;117.07;;;2.77;;
8411;SDS011;4243;49.296;11.348;2023-04-08T16:27:43;116.37;;;2.67;;
8411;SDS011;4243;49.296;11.348;2023-04-08T16:30:10;116.80;;;2.80;;
8411;SDS011;4243;49.296;11.348;2023-04-08T16:32:37;117.00;;;2.90;;
8411;SDS011;4243;49.296;11.348;2023-04-08T16:35:04;116.87;;;2.70;;
8411;SDS011;4243;49.296;11.348;2023-04-08T16:37:32;116.87;;;2.70;;
8411;SDS011;4243;49.296;11.348;2023-04-08T16:39:59;116.57;;;2.60;;
8411;SDS011;4243;49.296;11.348;2023-04-08T16:42:28;117.10;;;2.70;;
8411;SDS011;4243;49.296;11.348;2023-04-08T16:44:56;116.77;;;2.70;;
8411;SDS011;4243;49.296;11.348;2023-04-08T16:47:24;115.80;;;2.70;;
8411;SDS011;4243;49.296;11.348;2023-04-08T16:49:52;115.73;;;2.67;;
8411;SDS011;4243;49.296;11.348;2023-04-08T16:52:20;116.67;;;2.60;;
8411;SDS011;4243;49.296;11.348;2023-04-08T16:54:47;116.57;;;2.80;;
8411;SDS011;4243;49.296;11.348;2023-04-08T16:57:14;115.47;;;2.73;;
8411;SDS011;4243;49.296;11.348;2023-04-08T16:59:41;116.67;;;2.87;;
8411;SDS011;4243;49.296;11.348;2023-04-08T17:02:09;116.30;;;2.77;;
8411;SDS011;4243;49.296;11.348;2023-04-08T17:04:37;116.70;;;2.90;;
8411;SDS011;4243;49.296;11.348;2023-04-08T17:07:04;115.90;;;2.70;;
8411;SDS011;4243;49.296;11.348;2023-04-08T17:09:31;116.10;;;2.90;;
8411;SDS011;4243;49.296;11.348;2023-04-08T17:11:58;116.30;;;2.80;;
8411;SDS011;4243;49.296;11.348;2023-04-08T17:14:26;116.57;;;2.73;;
8411;SDS011;4243;49.296;11.348;2023-04-08T17:16:53;113.37;;;2.73;;
8411;SDS011;4243;49.296;11.348;2023-04-08T17:19:21;116.67;;;2.70;;
8411;SDS011;4243;49.296;11.348;2023-04-08T17:21:48;116.37;;;2.77;;
8411;SDS011;4243;49.296;11.348;2023-04-08T17:24:15;116.90;;;2.80;;
8411;SDS011;4243;49.296;11.348;2023-04-08T17:26:43;116.90;;;2.77;;
8411;SDS011;4243;49.296;11.348;2023-04-08T17:29:11;116.67;;;2.77;;
8411;SDS011;4243;49.296;11.348;2023-04-08T17:31:38;116.40;;;2.73;;
8411;SDS011;4243;49.296;11.348;2023-04-08T17:34:06;116.47;;;2.70;;
8411;SDS011;4243;49.296;11.348;2023-04-08T17:36:33;116.40;;;2.77;;
8411;SDS011;4243;49.296;11.348;2023-04-08T17:39:01;116.57;;;2.70;;
8411;SDS011;4243;49.296;11.348;2023-04-08T17:41:28;115.53;;;2.77;;